Estación Meteorológica Peña el Pijo (Robertgarden) [ 12/14/19 09:02:26 CET ]

Fecha Hora Presion(HPa) Temp (°C) Humedad % Rocio (°C) Viento ( m/s) Direccion Lluvia 1Hora(mm) Lluvia 24H(mm) LLuvia Total(mm)
2019-Nov-04 01:01:42 1006.000 11.9 71 6.8         21.23
2019-Nov-04 02:03:43 1005.600 12.4 74 7.9 1.2 N     21.23
2019-Nov-04 03:02:28 1005.200 12.6 77 8.6 2.4 N     21.23
2019-Nov-04 04:10:10 1005.100 12.5 79 8.9 3.5 NW     21.23
2019-Nov-04 05:02:24 1004.300 12.6 79 9.0         21.23
2019-Nov-04 06:05:10 1003.900 12.9 78 9.1         21.23
2019-Nov-04 07:01:48 1003.700 13.1 77 9.1         21.23
2019-Nov-04 08:01:39 1004.100 12.8 75 8.5         21.23
2019-Nov-04 09:01:44 1004.800 13.1 73 8.4 0.1 NW     21.23
2019-Nov-04 10:01:53 1004.800 15.4 65 8.8         21.23
2019-Nov-04 11:01:44 1004.800 16.1 61 8.6         21.23
2019-Nov-04 12:01:50 1004.400 16.3 58 8.0 2.5 WSW     21.23
2019-Nov-04 13:01:39 1003.600 17.0 57 8.4 0.6 E     21.23
2019-Nov-04 14:01:44 1003.000 17.8 55 8.6         21.23
2019-Nov-04 15:01:38 1002.700 16.4 60 8.7 2.5 SE     21.23
2019-Nov-04 16:01:43 1002.700 14.9 60 7.2 1.7 NE     21.23
2019-Nov-04 17:01:43 1002.200 14.5 60 6.9         21.23
2019-Nov-04 18:01:46 1001.800 13.4 64 6.7         21.23
2019-Nov-04 19:01:34 1001.900 12.9 65 6.4 1.7 N     21.23
2019-Nov-04 20:01:50 1002.500 12.4 65 6.0         21.23
2019-Nov-04 21:01:39 1001.900 12.5 66 6.3 2.8 NW     21.23
2019-Nov-04 22:01:32 1001.500 12.5 69 7.0         21.23
2019-Nov-04 23:01:35 1000.900 12.6 67 6.6         21.23

Temperatura Máxima:17°    Temperatura Mínima:11°
Presión Máxima:1006.000 Hpa    Presión Mínima:1000.900 Hpa


Volver